sensor_id;sensor_type;location;lat;lon;timestamp;P1;P2;P0
73623;PMS5003;61921;53.226;-1.296;2023-08-24T00:00:28;11;10;
73623;PMS5003;61921;53.226;-1.296;2023-08-24T00:02:53;11;10;
73623;PMS5003;61921;53.226;-1.296;2023-08-24T00:05:19;12;10;
73623;PMS5003;61921;53.226;-1.296;2023-08-24T00:07:44;12;12;
73623;PMS5003;61921;53.226;-1.296;2023-08-24T00:10:09;11;11;
73623;PMS5003;61921;53.226;-1.296;2023-08-24T00:12:34;11;10;
73623;PMS5003;61921;53.226;-1.296;2023-08-24T00:15:00;17;15;
73623;PMS5003;61921;53.226;-1.296;2023-08-24T00:17:25;12;10;
73623;PMS5003;61921;53.226;-1.296;2023-08-24T00:19:50;12;10;
73623;PMS5003;61921;53.226;-1.296;2023-08-24T00:22:15;13;12;
73623;PMS5003;61921;53.226;-1.296;2023-08-24T00:24:41;16;14;
73623;PMS5003;61921;53.226;-1.296;2023-08-24T00:27:06;11;10;
73623;PMS5003;61921;53.226;-1.296;2023-08-24T00:29:31;13;11;
73623;PMS5003;61921;53.226;-1.296;2023-08-24T00:31:57;18;12;
73623;PMS5003;61921;53.226;-1.296;2023-08-24T00:34:22;12;12;
73623;PMS5003;61921;53.226;-1.296;2023-08-24T00:36:47;10;10;
73623;PMS5003;61921;53.226;-1.296;2023-08-24T00:39:12;13;13;
73623;PMS5003;61921;53.226;-1.296;2023-08-24T00:41:37;18;14;
73623;PMS5003;61921;53.226;-1.296;2023-08-24T00:44:03;14;14;
73623;PMS5003;61921;53.226;-1.296;2023-08-24T00:46:28;14;14;
73623;PMS5003;61921;53.226;-1.296;2023-08-24T00:48:54;13;13;
73623;PMS5003;61921;53.226;-1.296;2023-08-24T00:51:20;17;17;
73623;PMS5003;61921;53.226;-1.296;2023-08-24T00:53:45;14;11;
73623;PMS5003;61921;53.226;-1.296;2023-08-24T00:56:11;18;14;
73623;PMS5003;61921;53.226;-1.296;2023-08-24T00:58:36;14;13;
73623;PMS5003;61921;53.226;-1.296;2023-08-24T01:01:01;11;11;
73623;PMS5003;61921;53.226;-1.296;2023-08-24T01:03:26;16;13;
73623;PMS5003;61921;53.226;-1.296;2023-08-24T01:05:52;16;13;
73623;PMS5003;61921;53.226;-1.296;2023-08-24T01:08:17;16;13;
73623;PMS5003;61921;53.226;-1.296;2023-08-24T01:10:44;16;15;
73623;PMS5003;61921;53.226;-1.296;2023-08-24T01:13:07;17;13;
73623;PMS5003;61921;53.226;-1.296;2023-08-24T01:15:35;17;16;
73623;PMS5003;61921;53.226;-1.296;2023-08-24T01:17:59;14;14;
73623;PMS5003;61921;53.226;-1.296;2023-08-24T01:20:24;14;14;
73623;PMS5003;61921;53.226;-1.296;2023-08-24T01:22:52;15;13;
73623;PMS5003;61921;53.226;-1.296;2023-08-24T01:25:15;16;16;
73623;PMS5003;61921;53.226;-1.296;2023-08-24T01:27:40;12;12;
73623;PMS5003;61921;53.226;-1.296;2023-08-24T01:30:06;13;12;
73623;PMS5003;61921;53.226;-1.296;2023-08-24T01:32:30;13;13;
73623;PMS5003;61921;53.226;-1.296;2023-08-24T01:34:55;11;10;
73623;PMS5003;61921;53.226;-1.296;2023-08-24T01:37:20;16;14;
73623;PMS5003;61921;53.226;-1.296;2023-08-24T01:39:48;18;14;
73623;PMS5003;61921;53.226;-1.296;2023-08-24T01:42:13;19;18;
73623;PMS5003;61921;53.226;-1.296;2023-08-24T01:44:37;13;13;
73623;PMS5003;61921;53.226;-1.296;2023-08-24T01:47:03;16;16;
73623;PMS5003;61921;53.226;-1.296;2023-08-24T01:49:27;12;12;
73623;PMS5003;61921;53.226;-1.296;2023-08-24T01:51:52;14;14;
73623;PMS5003;61921;53.226;-1.296;2023-08-24T01:54:17;15;14;
73623;PMS5003;61921;53.226;-1.296;2023-08-24T01:56:42;16;14;
73623;PMS5003;61921;53.226;-1.296;2023-08-24T01:59:08;18;17;
73623;PMS5003;61921;53.226;-1.296;2023-08-24T02:01:33;11;11;
73623;PMS5003;61921;53.226;-1.296;2023-08-24T02:03:58;15;15;
73623;PMS5003;61921;53.226;-1.296;2023-08-24T02:06:23;14;14;
73623;PMS5003;61921;53.226;-1.296;2023-08-24T02:08:49;12;12;
73623;PMS5003;61921;53.226;-1.296;2023-08-24T02:11:14;12;12;
73623;PMS5003;61921;53.226;-1.296;2023-08-24T02:13:39;15;14;
73623;PMS5003;61921;53.226;-1.296;2023-08-24T02:16:05;14;13;
73623;PMS5003;61921;53.226;-1.296;2023-08-24T02:18:30;15;14;
73623;PMS5003;61921;53.226;-1.296;2023-08-24T02:20:56;18;18;
73623;PMS5003;61921;53.226;-1.296;2023-08-24T02:23:21;19;17;
73623;PMS5003;61921;53.226;-1.296;2023-08-24T02:25:47;20;17;
73623;PMS5003;61921;53.226;-1.296;2023-08-24T02:28:12;17;16;
73623;PMS5003;61921;53.226;-1.296;2023-08-24T02:30:38;22;19;
73623;PMS5003;61921;53.226;-1.296;2023-08-24T02:33:03;20;19;
73623;PMS5003;61921;53.226;-1.296;2023-08-24T02:35:28;22;20;
73623;PMS5003;61921;53.226;-1.296;2023-08-24T02:37:53;19;18;
73623;PMS5003;61921;53.226;-1.296;2023-08-24T02:40:18;22;20;
73623;PMS5003;61921;53.226;-1.296;2023-08-24T02:42:44;22;19;
73623;PMS5003;61921;53.226;-1.296;2023-08-24T02:45:09;20;18;
73623;PMS5003;61921;53.226;-1.296;2023-08-24T02:47:35;21;18;
73623;PMS5003;61921;53.226;-1.296;2023-08-24T02:50:00;16;16;
73623;PMS5003;61921;53.226;-1.296;2023-08-24T02:52:26;21;18;
73623;PMS5003;61921;53.226;-1.296;2023-08-24T02:54:51;21;18;
73623;PMS5003;61921;53.226;-1.296;2023-08-24T02:57:17;18;16;
73623;PMS5003;61921;53.226;-1.296;2023-08-24T02:59:42;21;21;
73623;PMS5003;61921;53.226;-1.296;2023-08-24T03:02:08;20;19;
73623;PMS5003;61921;53.226;-1.296;2023-08-24T03:04:32;16;16;
73623;PMS5003;61921;53.226;-1.296;2023-08-24T03:06:58;19;16;
73623;PMS5003;61921;53.226;-1.296;2023-08-24T03:09:23;16;16;
73623;PMS5003;61921;53.226;-1.296;2023-08-24T03:11:49;21;19;
73623;PMS5003;61921;53.226;-1.296;2023-08-24T03:14:14;23;19;
73623;PMS5003;61921;53.226;-1.296;2023-08-24T03:16:39;23;22;
73623;PMS5003;61921;53.226;-1.296;2023-08-24T03:19:05;17;16;
73623;PMS5003;61921;53.226;-1.296;2023-08-24T03:21:31;18;17;
73623;PMS5003;61921;53.226;-1.296;2023-08-24T03:23:56;21;18;
73623;PMS5003;61921;53.226;-1.296;2023-08-24T03:26:22;18;17;
73623;PMS5003;61921;53.226;-1.296;2023-08-24T03:28:47;22;20;
73623;PMS5003;61921;53.226;-1.296;2023-08-24T03:31:13;21;20;
73623;PMS5003;61921;53.226;-1.296;2023-08-24T03:33:38;19;17;
73623;PMS5003;61921;53.226;-1.296;2023-08-24T03:36:04;22;21;
73623;PMS5003;61921;53.226;-1.296;2023-08-24T03:38:29;23;22;
73623;PMS5003;61921;53.226;-1.296;2023-08-24T03:41:00;22;19;
73623;PMS5003;61921;53.226;-1.296;2023-08-24T03:43:21;19;19;
73623;PMS5003;61921;53.226;-1.296;2023-08-24T03:45:46;24;18;
73623;PMS5003;61921;53.226;-1.296;2023-08-24T03:48:11;26;23;
73623;PMS5003;61921;53.226;-1.296;2023-08-24T03:50:36;24;23;
73623;PMS5003;61921;53.226;-1.296;2023-08-24T03:53:03;21;19;
73623;PMS5003;61921;53.226;-1.296;2023-08-24T03:55:28;31;30;
73623;PMS5003;61921;53.226;-1.296;2023-08-24T03:57:53;25;22;
73623;PMS5003;61921;53.226;-1.296;2023-08-24T04:00:18;23;22;
73623;PMS5003;61921;53.226;-1.296;2023-08-24T04:02:44;27;24;
73623;PMS5003;61921;53.226;-1.296;2023-08-24T04:05:09;29;23;
73623;PMS5003;61921;53.226;-1.296;2023-08-24T04:07:35;24;24;
73623;PMS5003;61921;53.226;-1.296;2023-08-24T04:10:01;23;21;
73623;PMS5003;61921;53.226;-1.296;2023-08-24T04:12:26;24;21;
73623;PMS5003;61921;53.226;-1.296;2023-08-24T04:14:51;25;24;
73623;PMS5003;61921;53.226;-1.296;2023-08-24T04:17:17;26;21;
73623;PMS5003;61921;53.226;-1.296;2023-08-24T04:19:43;22;20;
73623;PMS5003;61921;53.226;-1.296;2023-08-24T04:22:08;29;27;
73623;PMS5003;61921;53.226;-1.296;2023-08-24T04:24:33;22;22;
73623;PMS5003;61921;53.226;-1.296;2023-08-24T04:26:59;22;20;
73623;PMS5003;61921;53.226;-1.296;2023-08-24T04:29:24;25;21;
73623;PMS5003;61921;53.226;-1.296;2023-08-24T04:31:50;22;20;
73623;PMS5003;61921;53.226;-1.296;2023-08-24T04:34:15;21;21;
73623;PMS5003;61921;53.226;-1.296;2023-08-24T04:36:41;21;19;
73623;PMS5003;61921;53.226;-1.296;2023-08-24T04:39:07;25;22;
73623;PMS5003;61921;53.226;-1.296;2023-08-24T04:41:32;21;21;
73623;PMS5003;61921;53.226;-1.296;2023-08-24T04:43:58;19;17;
73623;PMS5003;61921;53.226;-1.296;2023-08-24T04:46:23;17;17;
73623;PMS5003;61921;53.226;-1.296;2023-08-24T04:48:48;16;15;
73623;PMS5003;61921;53.226;-1.296;2023-08-24T04:51:14;18;17;
73623;PMS5003;61921;53.226;-1.296;2023-08-24T04:53:39;16;16;
73623;PMS5003;61921;53.226;-1.296;2023-08-24T04:56:05;19;19;
73623;PMS5003;61921;53.226;-1.296;2023-08-24T04:58:32;22;19;
73623;PMS5003;61921;53.226;-1.296;2023-08-24T05:00:55;19;16;
73623;PMS5003;61921;53.226;-1.296;2023-08-24T05:03:21;24;18;
73623;PMS5003;61921;53.226;-1.296;2023-08-24T05:05:46;20;17;
73623;PMS5003;61921;53.226;-1.296;2023-08-24T05:08:12;17;15;
73623;PMS5003;61921;53.226;-1.296;2023-08-24T05:10:37;17;16;
73623;PMS5003;61921;53.226;-1.296;2023-08-24T05:13:03;21;20;
73623;PMS5003;61921;53.226;-1.296;2023-08-24T05:15:28;19;17;
73623;PMS5003;61921;53.226;-1.296;2023-08-24T05:17:54;16;15;
73623;PMS5003;61921;53.226;-1.296;2023-08-24T05:20:19;19;19;
73623;PMS5003;61921;53.226;-1.296;2023-08-24T05:22:45;18;18;
73623;PMS5003;61921;53.226;-1.296;2023-08-24T05:25:10;24;22;
73623;PMS5003;61921;53.226;-1.296;2023-08-24T05:27:36;18;18;
73623;PMS5003;61921;53.226;-1.296;2023-08-24T05:30:02;15;13;
73623;PMS5003;61921;53.226;-1.296;2023-08-24T05:32:27;17;17;
73623;PMS5003;61921;53.226;-1.296;2023-08-24T05:34:52;20;18;
73623;PMS5003;61921;53.226;-1.296;2023-08-24T05:37:17;16;16;
73623;PMS5003;61921;53.226;-1.296;2023-08-24T05:39:43;15;14;
73623;PMS5003;61921;53.226;-1.296;2023-08-24T05:42:08;18;18;
73623;PMS5003;61921;53.226;-1.296;2023-08-24T05:44:33;17;16;
73623;PMS5003;61921;53.226;-1.296;2023-08-24T05:46:59;18;18;
73623;PMS5003;61921;53.226;-1.296;2023-08-24T05:49:25;22;21;
73623;PMS5003;61921;53.226;-1.296;2023-08-24T05:51:50;22;22;
73623;PMS5003;61921;53.226;-1.296;2023-08-24T05:54:15;21;18;
73623;PMS5003;61921;53.226;-1.296;2023-08-24T05:56:40;19;16;
73623;PMS5003;61921;53.226;-1.296;2023-08-24T05:59:06;19;18;
73623;PMS5003;61921;53.226;-1.296;2023-08-24T06:01:31;20;20;
73623;PMS5003;61921;53.226;-1.296;2023-08-24T06:03:56;21;20;
73623;PMS5003;61921;53.226;-1.296;2023-08-24T06:06:21;18;18;
73623;PMS5003;61921;53.226;-1.296;2023-08-24T06:08:47;22;21;
73623;PMS5003;61921;53.226;-1.296;2023-08-24T06:11:13;20;19;
73623;PMS5003;61921;53.226;-1.296;2023-08-24T06:13:38;29;24;
73623;PMS5003;61921;53.226;-1.296;2023-08-24T06:16:03;20;18;
73623;PMS5003;61921;53.226;-1.296;2023-08-24T06:18:28;23;22;
73623;PMS5003;61921;53.226;-1.296;2023-08-24T06:20:54;22;21;
73623;PMS5003;61921;53.226;-1.296;2023-08-24T06:23:19;21;20;
73623;PMS5003;61921;53.226;-1.296;2023-08-24T06:25:44;16;13;
73623;PMS5003;61921;53.226;-1.296;2023-08-24T06:28:09;15;15;
73623;PMS5003;61921;53.226;-1.296;2023-08-24T06:30:36;14;14;
73623;PMS5003;61921;53.226;-1.296;2023-08-24T06:33:00;13;13;
73623;PMS5003;61921;53.226;-1.296;2023-08-24T06:35:25;20;18;
73623;PMS5003;61921;53.226;-1.296;2023-08-24T06:37:51;26;20;
73623;PMS5003;61921;53.226;-1.296;2023-08-24T06:40:16;23;21;
73623;PMS5003;61921;53.226;-1.296;2023-08-24T06:42:41;16;15;
73623;PMS5003;61921;53.226;-1.296;2023-08-24T06:45:07;18;18;
73623;PMS5003;61921;53.226;-1.296;2023-08-24T06:47:32;16;16;
73623;PMS5003;61921;53.226;-1.296;2023-08-24T06:49:58;18;18;
73623;PMS5003;61921;53.226;-1.296;2023-08-24T06:52:24;19;17;
73623;PMS5003;61921;53.226;-1.296;2023-08-24T06:54:49;20;19;
73623;PMS5003;61921;53.226;-1.296;2023-08-24T06:57:14;22;20;
73623;PMS5003;61921;53.226;-1.296;2023-08-24T06:59:39;20;16;
73623;PMS5003;61921;53.226;-1.296;2023-08-24T07:02:05;20;20;
73623;PMS5003;61921;53.226;-1.296;2023-08-24T07:04:30;22;19;
73623;PMS5003;61921;53.226;-1.296;2023-08-24T07:06:56;28;23;
73623;PMS5003;61921;53.226;-1.296;2023-08-24T07:09:21;19;18;
73623;PMS5003;61921;53.226;-1.296;2023-08-24T07:11:46;19;19;
73623;PMS5003;61921;53.226;-1.296;2023-08-24T07:14:12;25;19;
73623;PMS5003;61921;53.226;-1.296;2023-08-24T07:16:38;16;16;
73623;PMS5003;61921;53.226;-1.296;2023-08-24T07:19:03;16;15;
73623;PMS5003;61921;53.226;-1.296;2023-08-24T07:21:28;19;17;
73623;PMS5003;61921;53.226;-1.296;2023-08-24T07:23:54;18;16;
73623;PMS5003;61921;53.226;-1.296;2023-08-24T07:26:19;15;14;
73623;PMS5003;61921;53.226;-1.296;2023-08-24T07:28:44;19;16;
73623;PMS5003;61921;53.226;-1.296;2023-08-24T07:31:09;18;15;
73623;PMS5003;61921;53.226;-1.296;2023-08-24T07:33:35;14;13;
73623;PMS5003;61921;53.226;-1.296;2023-08-24T07:36:00;15;15;
73623;PMS5003;61921;53.226;-1.296;2023-08-24T07:38:26;14;14;
73623;PMS5003;61921;53.226;-1.296;2023-08-24T07:40:51;11;10;
73623;PMS5003;61921;53.226;-1.296;2023-08-24T07:43:17;10;10;
73623;PMS5003;61921;53.226;-1.296;2023-08-24T07:45:42;12;11;
73623;PMS5003;61921;53.226;-1.296;2023-08-24T07:48:07;12;11;
73623;PMS5003;61921;53.226;-1.296;2023-08-24T07:50:32;10;10;
73623;PMS5003;61921;53.226;-1.296;2023-08-24T07:52:57;8;8;
73623;PMS5003;61921;53.226;-1.296;2023-08-24T07:55:23;10;10;
73623;PMS5003;61921;53.226;-1.296;2023-08-24T07:57:48;11;11;
73623;PMS5003;61921;53.226;-1.296;2023-08-24T08:00:14;10;10;
73623;PMS5003;61921;53.226;-1.296;2023-08-24T08:02:38;8;7;
73623;PMS5003;61921;53.226;-1.296;2023-08-24T08:05:04;9;9;
73623;PMS5003;61921;53.226;-1.296;2023-08-24T08:07:28;8;7;
73623;PMS5003;61921;53.226;-1.296;2023-08-24T08:09:53;8;8;
73623;PMS5003;61921;53.226;-1.296;2023-08-24T08:12:19;12;10;
73623;PMS5003;61921;53.226;-1.296;2023-08-24T08:14:44;8;7;
73623;PMS5003;61921;53.226;-1.296;2023-08-24T08:17:09;10;9;
73623;PMS5003;61921;53.226;-1.296;2023-08-24T08:19:34;9;9;
73623;PMS5003;61921;53.226;-1.296;2023-08-24T08:22:00;9;9;
73623;PMS5003;61921;53.226;-1.296;2023-08-24T08:24:25;11;11;
73623;PMS5003;61921;53.226;-1.296;2023-08-24T08:26:50;13;11;
73623;PMS5003;61921;53.226;-1.296;2023-08-24T08:29:15;9;7;
73623;PMS5003;61921;53.226;-1.296;2023-08-24T08:31:41;6;6;
73623;PMS5003;61921;53.226;-1.296;2023-08-24T08:34:06;8;7;
73623;PMS5003;61921;53.226;-1.296;2023-08-24T08:36:32;7;7;
73623;PMS5003;61921;53.226;-1.296;2023-08-24T08:38:57;7;6;
73623;PMS5003;61921;53.226;-1.296;2023-08-24T08:41:22;5;5;
73623;PMS5003;61921;53.226;-1.296;2023-08-24T08:43:48;5;5;
73623;PMS5003;61921;53.226;-1.296;2023-08-24T08:46:12;7;7;
73623;PMS5003;61921;53.226;-1.296;2023-08-24T08:48:38;5;5;
73623;PMS5003;61921;53.226;-1.296;2023-08-24T08:51:03;4;4;
73623;PMS5003;61921;53.226;-1.296;2023-08-24T08:53:28;5;5;
73623;PMS5003;61921;53.226;-1.296;2023-08-24T08:55:53;3;3;
73623;PMS5003;61921;53.226;-1.296;2023-08-24T08:58:18;9;4;
73623;PMS5003;61921;53.226;-1.296;2023-08-24T09:00:43;7;5;
73623;PMS5003;61921;53.226;-1.296;2023-08-24T09:03:08;5;5;
73623;PMS5003;61921;53.226;-1.296;2023-08-24T09:05:33;5;5;
73623;PMS5003;61921;53.226;-1.296;2023-08-24T09:07:58;3;3;
73623;PMS5003;61921;53.226;-1.296;2023-08-24T09:10:23;5;5;
73623;PMS5003;61921;53.226;-1.296;2023-08-24T09:12:48;4;4;
73623;PMS5003;61921;53.226;-1.296;2023-08-24T09:17:42;2;2;
73623;PMS5003;61921;53.226;-1.296;2023-08-24T09:20:07;2;2;
73623;PMS5003;61921;53.226;-1.296;2023-08-24T09:22:34;3;3;
73623;PMS5003;61921;53.226;-1.296;2023-08-24T09:24:58;2;2;
73623;PMS5003;61921;53.226;-1.296;2023-08-24T09:27:24;3;3;
73623;PMS5003;61921;53.226;-1.296;2023-08-24T09:29:50;1;1;
73623;PMS5003;61921;53.226;-1.296;2023-08-24T09:32:15;4;3;
73623;PMS5003;61921;53.226;-1.296;2023-08-24T09:34:41;3;2;
73623;PMS5003;61921;53.226;-1.296;2023-08-24T09:37:12;3;2;
73623;PMS5003;61921;53.226;-1.296;2023-08-24T09:39:33;3;3;
73623;PMS5003;61921;53.226;-1.296;2023-08-24T09:42:00;2;2;
73623;PMS5003;61921;53.226;-1.296;2023-08-24T09:44:25;4;3;
73623;PMS5003;61921;53.226;-1.296;2023-08-24T09:46:50;2;2;
73623;PMS5003;61921;53.226;-1.296;2023-08-24T09:49:17;4;2;
73623;PMS5003;61921;53.226;-1.296;2023-08-24T09:51:42;4;2;
73623;PMS5003;61921;53.226;-1.296;2023-08-24T09:54:09;3;3;
73623;PMS5003;61921;53.226;-1.296;2023-08-24T09:56:34;1;1;
73623;PMS5003;61921;53.226;-1.296;2023-08-24T09:59:08;2;2;
73623;PMS5003;61921;53.226;-1.296;2023-08-24T10:01:26;2;2;
73623;PMS5003;61921;53.226;-1.296;2023-08-24T10:03:51;2;2;
73623;PMS5003;61921;53.226;-1.296;2023-08-24T10:06:18;3;3;
73623;PMS5003;61921;53.226;-1.296;2023-08-24T10:08:43;1;1;
73623;PMS5003;61921;53.226;-1.296;2023-08-24T10:11:08;2;2;
73623;PMS5003;61921;53.226;-1.296;2023-08-24T10:13:36;1;1;
73623;PMS5003;61921;53.226;-1.296;2023-08-24T10:16:00;2;2;
73623;PMS5003;61921;53.226;-1.296;2023-08-24T10:18:26;2;2;
73623;PMS5003;61921;53.226;-1.296;2023-08-24T10:20:52;5;3;
73623;PMS5003;61921;53.226;-1.296;2023-08-24T10:23:17;3;3;
73623;PMS5003;61921;53.226;-1.296;2023-08-24T10:25:44;4;3;
73623;PMS5003;61921;53.226;-1.296;2023-08-24T10:28:09;2;2;
73623;PMS5003;61921;53.226;-1.296;2023-08-24T10:30:35;3;2;
73623;PMS5003;61921;53.226;-1.296;2023-08-24T10:33:01;2;1;
73623;PMS5003;61921;53.226;-1.296;2023-08-24T10:35:26;2;2;
73623;PMS5003;61921;53.226;-1.296;2023-08-24T10:37:52;2;1;
73623;PMS5003;61921;53.226;-1.296;2023-08-24T10:42:44;0;0;
73623;PMS5003;61921;53.226;-1.296;2023-08-24T10:45:11;0;0;
73623;PMS5003;61921;53.226;-1.296;2023-08-24T10:50:02;1;1;
73623;PMS5003;61921;53.226;-1.296;2023-08-24T10:52:30;2;0;
73623;PMS5003;61921;53.226;-1.296;2023-08-24T10:54:53;1;1;
73623;PMS5003;61921;53.226;-1.296;2023-08-24T10:57:20;1;1;
73623;PMS5003;61921;53.226;-1.296;2023-08-24T10:59:45;1;0;
73623;PMS5003;61921;53.226;-1.296;2023-08-24T11:04:36;2;0;
73623;PMS5003;61921;53.226;-1.296;2023-08-24T11:07:02;2;2;
73623;PMS5003;61921;53.226;-1.296;2023-08-24T11:09:29;1;1;
73623;PMS5003;61921;53.226;-1.296;2023-08-24T11:11:56;2;2;
73623;PMS5003;61921;53.226;-1.296;2023-08-24T11:14:19;0;0;
73623;PMS5003;61921;53.226;-1.296;2023-08-24T11:16:45;2;1;
73623;PMS5003;61921;53.226;-1.296;2023-08-24T11:19:10;1;1;
73623;PMS5003;61921;53.226;-1.296;2023-08-24T11:21:36;2;1;
73623;PMS5003;61921;53.226;-1.296;2023-08-24T11:24:02;1;1;
73623;PMS5003;61921;53.226;-1.296;2023-08-24T11:26:29;1;1;
73623;PMS5003;61921;53.226;-1.296;2023-08-24T11:28:53;1;1;
73623;PMS5003;61921;53.226;-1.296;2023-08-24T11:31:19;0;0;
73623;PMS5003;61921;53.226;-1.296;2023-08-24T11:33:45;0;0;
73623;PMS5003;61921;53.226;-1.296;2023-08-24T11:36:11;0;0;
73623;PMS5003;61921;53.226;-1.296;2023-08-24T11:38:37;2;2;
73623;PMS5003;61921;53.226;-1.296;2023-08-24T11:43:28;3;3;
73623;PMS5003;61921;53.226;-1.296;2023-08-24T11:45:53;3;3;
73623;PMS5003;61921;53.226;-1.296;2023-08-24T11:48:23;3;3;
73623;PMS5003;61921;53.226;-1.296;2023-08-24T11:50:45;2;2;
73623;PMS5003;61921;53.226;-1.296;2023-08-24T11:53:11;4;3;
73623;PMS5003;61921;53.226;-1.296;2023-08-24T11:55:39;2;2;
73623;PMS5003;61921;53.226;-1.296;2023-08-24T11:58:03;4;4;
73623;PMS5003;61921;53.226;-1.296;2023-08-24T12:00:28;4;4;
73623;PMS5003;61921;53.226;-1.296;2023-08-24T12:02:54;7;7;
73623;PMS5003;61921;53.226;-1.296;2023-08-24T12:05:21;6;6;
73623;PMS5003;61921;53.226;-1.296;2023-08-24T12:07:45;8;8;
73623;PMS5003;61921;53.226;-1.296;2023-08-24T12:10:12;9;8;
73623;PMS5003;61921;53.226;-1.296;2023-08-24T12:12:35;9;7;
73623;PMS5003;61921;53.226;-1.296;2023-08-24T12:15:00;8;8;
73623;PMS5003;61921;53.226;-1.296;2023-08-24T12:17:25;12;10;
73623;PMS5003;61921;53.226;-1.296;2023-08-24T12:22:15;11;9;
73623;PMS5003;61921;53.226;-1.296;2023-08-24T12:24:43;9;9;
73623;PMS5003;61921;53.226;-1.296;2023-08-24T12:27:05;10;10;
73623;PMS5003;61921;53.226;-1.296;2023-08-24T12:29:30;8;8;
73623;PMS5003;61921;53.226;-1.296;2023-08-24T12:31:56;8;8;
73623;PMS5003;61921;53.226;-1.296;2023-08-24T12:34:20;4;4;
73623;PMS5003;61921;53.226;-1.296;2023-08-24T12:36:45;6;6;
73623;PMS5003;61921;53.226;-1.296;2023-08-24T12:39:11;6;6;
73623;PMS5003;61921;53.226;-1.296;2023-08-24T12:41:36;5;5;
73623;PMS5003;61921;53.226;-1.296;2023-08-24T12:44:06;5;5;
73623;PMS5003;61921;53.226;-1.296;2023-08-24T12:46:25;5;5;
73623;PMS5003;61921;53.226;-1.296;2023-08-24T12:48:51;5;5;
73623;PMS5003;61921;53.226;-1.296;2023-08-24T12:51:16;5;5;
73623;PMS5003;61921;53.226;-1.296;2023-08-24T12:53:41;4;4;
73623;PMS5003;61921;53.226;-1.296;2023-08-24T12:56:06;3;3;
73623;PMS5003;61921;53.226;-1.296;2023-08-24T12:58:31;2;2;
73623;PMS5003;61921;53.226;-1.296;2023-08-24T13:00:57;3;3;
73623;PMS5003;61921;53.226;-1.296;2023-08-24T13:03:21;2;2;
73623;PMS5003;61921;53.226;-1.296;2023-08-24T13:05:47;3;3;
73623;PMS5003;61921;53.226;-1.296;2023-08-24T13:08:11;4;2;
73623;PMS5003;61921;53.226;-1.296;2023-08-24T13:10:37;2;2;
73623;PMS5003;61921;53.226;-1.296;2023-08-24T13:13:02;2;2;
73623;PMS5003;61921;53.226;-1.296;2023-08-24T13:15:27;4;3;
73623;PMS5003;61921;53.226;-1.296;2023-08-24T13:17:52;5;3;
73623;PMS5003;61921;53.226;-1.296;2023-08-24T13:20:17;6;5;
73623;PMS5003;61921;53.226;-1.296;2023-08-24T13:22:42;1;1;
73623;PMS5003;61921;53.226;-1.296;2023-08-24T13:25:07;1;1;
73623;PMS5003;61921;53.226;-1.296;2023-08-24T13:27:32;2;2;
73623;PMS5003;61921;53.226;-1.296;2023-08-24T13:29:59;3;1;
73623;PMS5003;61921;53.226;-1.296;2023-08-24T13:32:22;2;2;
73623;PMS5003;61921;53.226;-1.296;2023-08-24T13:34:47;1;1;
73623;PMS5003;61921;53.226;-1.296;2023-08-24T13:37:12;2;2;
73623;PMS5003;61921;53.226;-1.296;2023-08-24T13:39:37;4;2;
73623;PMS5003;61921;53.226;-1.296;2023-08-24T13:42:02;3;2;
73623;PMS5003;61921;53.226;-1.296;2023-08-24T13:44:27;2;2;
73623;PMS5003;61921;53.226;-1.296;2023-08-24T13:46:52;3;2;
73623;PMS5003;61921;53.226;-1.296;2023-08-24T13:49:18;2;1;
73623;PMS5003;61921;53.226;-1.296;2023-08-24T13:51:42;2;2;
73623;PMS5003;61921;53.226;-1.296;2023-08-24T13:54:12;0;0;
73623;PMS5003;61921;53.226;-1.296;2023-08-24T13:56:32;3;3;
73623;PMS5003;61921;53.226;-1.296;2023-08-24T13:58:57;2;2;
73623;PMS5003;61921;53.226;-1.296;2023-08-24T14:01:22;4;4;
73623;PMS5003;61921;53.226;-1.296;2023-08-24T14:03:47;3;3;
73623;PMS5003;61921;53.226;-1.296;2023-08-24T14:06:13;5;5;
73623;PMS5003;61921;53.226;-1.296;2023-08-24T14:08:38;4;4;
73623;PMS5003;61921;53.226;-1.296;2023-08-24T14:11:03;6;6;
73623;PMS5003;61921;53.226;-1.296;2023-08-24T14:13:28;3;3;
73623;PMS5003;61921;53.226;-1.296;2023-08-24T14:15:53;4;4;
73623;PMS5003;61921;53.226;-1.296;2023-08-24T14:18:18;4;4;
73623;PMS5003;61921;53.226;-1.296;2023-08-24T14:20:43;6;6;
73623;PMS5003;61921;53.226;-1.296;2023-08-24T14:23:08;8;5;
73623;PMS5003;61921;53.226;-1.296;2023-08-24T14:25:33;4;3;
73623;PMS5003;61921;53.226;-1.296;2023-08-24T14:27:58;4;4;
73623;PMS5003;61921;53.226;-1.296;2023-08-24T14:30:23;6;4;
73623;PMS5003;61921;53.226;-1.296;2023-08-24T14:32:48;7;6;
73623;PMS5003;61921;53.226;-1.296;2023-08-24T14:35:13;8;6;
73623;PMS5003;61921;53.226;-1.296;2023-08-24T14:37:38;5;5;
73623;PMS5003;61921;53.226;-1.296;2023-08-24T14:40:03;7;7;
73623;PMS5003;61921;53.226;-1.296;2023-08-24T14:42:28;6;6;
73623;PMS5003;61921;53.226;-1.296;2023-08-24T14:44:53;6;5;
73623;PMS5003;61921;53.226;-1.296;2023-08-24T14:47:18;4;4;
73623;PMS5003;61921;53.226;-1.296;2023-08-24T14:49:43;6;4;
73623;PMS5003;61921;53.226;-1.296;2023-08-24T14:52:08;4;4;
73623;PMS5003;61921;53.226;-1.296;2023-08-24T14:54:33;3;3;
73623;PMS5003;61921;53.226;-1.296;2023-08-24T14:56:58;5;4;
73623;PMS5003;61921;53.226;-1.296;2023-08-24T14:59:23;3;3;
73623;PMS5003;61921;53.226;-1.296;2023-08-24T15:01:48;4;4;
73623;PMS5003;61921;53.226;-1.296;2023-08-24T15:04:13;8;7;
73623;PMS5003;61921;53.226;-1.296;2023-08-24T15:06:39;5;5;
73623;PMS5003;61921;53.226;-1.296;2023-08-24T15:09:04;6;4;
73623;PMS5003;61921;53.226;-1.296;2023-08-24T15:11:29;7;4;
73623;PMS5003;61921;53.226;-1.296;2023-08-24T15:13:54;6;6;
73623;PMS5003;61921;53.226;-1.296;2023-08-24T15:16:19;5;5;
73623;PMS5003;61921;53.226;-1.296;2023-08-24T15:18:44;7;6;
73623;PMS5003;61921;53.226;-1.296;2023-08-24T15:21:09;8;6;
73623;PMS5003;61921;53.226;-1.296;2023-08-24T15:23:34;8;7;
73623;PMS5003;61921;53.226;-1.296;2023-08-24T15:25:59;9;7;
73623;PMS5003;61921;53.226;-1.296;2023-08-24T15:28:24;6;6;
73623;PMS5003;61921;53.226;-1.296;2023-08-24T15:30:50;10;9;
73623;PMS5003;61921;53.226;-1.296;2023-08-24T15:33:15;5;5;
73623;PMS5003;61921;53.226;-1.296;2023-08-24T15:35:40;10;8;
73623;PMS5003;61921;53.226;-1.296;2023-08-24T15:38:05;5;5;
73623;PMS5003;61921;53.226;-1.296;2023-08-24T15:40:30;6;6;
73623;PMS5003;61921;53.226;-1.296;2023-08-24T15:42:55;8;8;
73623;PMS5003;61921;53.226;-1.296;2023-08-24T15:45:20;7;6;
73623;PMS5003;61921;53.226;-1.296;2023-08-24T15:47:45;6;6;
73623;PMS5003;61921;53.226;-1.296;2023-08-24T15:50:10;7;7;
73623;PMS5003;61921;53.226;-1.296;2023-08-24T15:52:36;7;6;
73623;PMS5003;61921;53.226;-1.296;2023-08-24T15:55:01;9;9;
73623;PMS5003;61921;53.226;-1.296;2023-08-24T15:57:26;11;11;
73623;PMS5003;61921;53.226;-1.296;2023-08-24T15:59:51;9;9;
73623;PMS5003;61921;53.226;-1.296;2023-08-24T16:02:16;9;9;
73623;PMS5003;61921;53.226;-1.296;2023-08-24T16:04:41;10;10;
73623;PMS5003;61921;53.226;-1.296;2023-08-24T16:07:06;14;14;
73623;PMS5003;61921;53.226;-1.296;2023-08-24T16:09:31;7;7;
73623;PMS5003;61921;53.226;-1.296;2023-08-24T16:11:57;7;7;
73623;PMS5003;61921;53.226;-1.296;2023-08-24T16:14:22;5;5;
73623;PMS5003;61921;53.226;-1.296;2023-08-24T16:16:47;6;6;